Time;durP1;ratioP1;P1;durP2;ratioP2;P2;SDS_P1;SDS_P2;PMS_P1;PMS_P2;Temp;Humidity;BMP_temperature;BMP_pressure;BME280_temperature;BME280_humidity;BME280_pressure;Samples;Min_cycle;Max_cycle;Signal;HPM_P1;HPM_P2
2023/09/09 00:04:34;;;;;;;14.20;12.82;;;17.60;99.90;;;18.21;100.00;98025.88;10297123;28;20329;-69
2023/09/09 00:09:37;;;;;;;14.05;12.85;;;17.50;99.90;;;18.11;100.00;98021.25;10292968;28;20231;-72
2023/09/09 00:14:41;;;;;;;15.02;13.70;;;17.40;99.90;;;18.08;100.00;98021.16;10292032;28;20867;-70
2023/09/09 00:19:45;;;;;;;13.63;12.43;;;17.40;99.90;;;18.10;100.00;98020.38;10292952;28;20322;-73
2023/09/09 00:24:49;;;;;;;15.23;13.88;;;17.40;99.90;;;17.99;100.00;98022.66;10291992;28;20330;-73
2023/09/09 00:29:52;;;;;;;15.30;13.90;;;17.30;99.90;;;17.89;100.00;98020.63;10294332;28;20923;-73
2023/09/09 00:34:56;;;;;;;15.40;13.98;;;17.20;99.90;;;17.77;100.00;98009.88;10290782;28;20243;-73
2023/09/09 00:40:00;;;;;;;14.95;13.75;;;17.10;99.90;;;17.78;100.00;98011.66;10290289;28;20433;-70
2023/09/09 00:45:04;;;;;;;14.70;13.35;;;17.10;99.90;;;17.78;100.00;98011.66;10289185;28;20223;-69
2023/09/09 00:50:11;;;;;;;13.73;12.57;;;17.10;99.90;;;17.81;100.00;98016.91;10301494;28;20234;-71
2023/09/09 00:55:15;;;;;;;15.60;14.20;;;17.10;99.90;;;17.67;100.00;98013.88;10298619;28;20242;-70
2023/09/09 01:00:19;;;;;;;14.88;13.57;;;17.00;99.90;;;17.61;100.00;98018.84;10297195;28;21066;-71
2023/09/09 01:05:24;;;;;;;15.77;14.48;;;16.90;99.90;;;17.54;100.00;98017.78;10301065;28;20231;-70
2023/09/09 01:10:27;;;;;;;14.68;13.43;;;16.80;99.90;;;17.44;100.00;98013.13;10298094;28;20266;-73
2023/09/09 01:15:31;;;;;;;15.18;13.88;;;16.80;99.90;;;17.40;100.00;98016.47;10297222;28;20267;-71
2023/09/09 01:20:39;;;;;;;15.75;14.35;;;16.70;99.90;;;17.44;100.00;98009.69;10298432;28;20596;-75
2023/09/09 01:25:43;;;;;;;15.30;13.98;;;16.70;99.90;;;17.49;100.00;98016.75;10297595;28;20783;-69
2023/09/09 01:30:47;;;;;;;15.68;14.18;;;16.80;99.90;;;17.59;100.00;98017.03;10301087;28;20230;-69
2023/09/09 01:35:50;;;;;;;15.40;14.02;;;16.80;99.90;;;17.62;100.00;98019.72;10296651;28;20640;-71
2023/09/09 01:40:54;;;;;;;15.45;14.10;;;16.80;99.90;;;17.67;100.00;98023.34;10299293;28;20231;-69
2023/09/09 01:45:58;;;;;;;16.15;14.75;;;16.90;99.90;;;17.66;100.00;98027.63;10295192;28;20234;-70
2023/09/09 01:51:01;;;;;;;14.98;13.77;;;16.90;99.90;;;17.55;100.00;98014.34;10297370;28;20223;-71
2023/09/09 01:56:06;;;;;;;14.75;13.40;;;16.80;99.90;;;17.56;100.00;98028.16;10294109;28;20235;-73
2023/09/09 02:01:09;;;;;;;15.48;14.18;;;16.80;99.90;;;17.49;100.00;98016.75;10295883;28;20365;-71
2023/09/09 02:06:12;;;;;;;14.73;13.40;;;16.70;99.90;;;17.41;100.00;98015.63;10296421;28;20251;-72
2023/09/09 02:11:17;;;;;;;13.93;12.73;;;16.60;99.90;;;17.44;100.00;98010.53;10296504;28;20275;-70
2023/09/09 02:16:20;;;;;;;13.57;12.35;;;16.60;99.90;;;17.46;100.00;98013.19;10295557;28;20231;-70
2023/09/09 02:21:24;;;;;;;13.82;12.63;;;16.60;99.90;;;17.37;100.00;98013.78;10295585;28;20357;-71
2023/09/09 02:26:28;;;;;;;13.15;12.02;;;16.50;99.90;;;17.34;100.00;98003.34;10295253;28;20733;-74
2023/09/09 02:31:32;;;;;;;12.68;11.68;;;16.40;99.90;;;17.27;100.00;98011.69;10293926;28;20317;-72
2023/09/09 02:36:35;;;;;;;12.82;11.80;;;16.40;99.90;;;17.22;100.00;98005.50;10296578;28;20234;-75
2023/09/09 02:41:40;;;;;;;12.98;11.90;;;16.20;99.90;;;17.07;100.00;98004.16;10294037;28;20377;-71
2023/09/09 02:46:43;;;;;;;14.40;13.18;;;16.20;99.90;;;16.91;100.00;98007.03;10293011;28;20354;-70
2023/09/09 02:51:46;;;;;;;13.65;12.55;;;16.10;99.90;;;16.84;100.00;98008.53;10292641;28;21160;-70
2023/09/09 02:56:51;;;;;;;13.52;12.52;;;16.00;99.90;;;16.71;100.00;98005.44;10295236;28;20642;-73
2023/09/09 03:01:54;;;;;;;13.57;12.35;;;15.90;99.90;;;16.79;100.00;98007.50;10291985;28;20235;-74
2023/09/09 03:06:58;;;;;;;14.27;13.15;;;16.00;99.90;;;16.83;100.00;98000.75;10290321;28;20229;-72
2023/09/09 03:12:03;;;;;;;13.98;12.82;;;16.00;99.90;;;16.79;100.00;98004.03;10294826;28;20239;-70
2023/09/09 03:17:07;;;;;;;14.10;12.93;;;16.00;99.90;;;16.69;100.00;97999.38;10291798;28;20677;-69
2023/09/09 03:22:10;;;;;;;13.43;12.32;;;15.90;99.90;;;16.73;100.00;98002.09;10294120;28;20939;-73
2023/09/09 03:27:15;;;;;;;14.45;13.25;;;16.00;99.90;;;16.67;100.00;97997.59;10290222;28;20601;-72
2023/09/09 03:32:18;;;;;;;14.07;12.88;;;15.90;99.90;;;16.72;100.00;98002.06;10291052;28;20262;-70
2023/09/09 03:37:22;;;;;;;13.93;12.73;;;15.90;99.90;;;16.67;100.00;98005.31;10295753;28;20360;-73
2023/09/09 03:42:27;;;;;;;12.65;11.65;;;15.80;99.90;;;16.67;100.00;98005.31;10292852;28;20227;-71
2023/09/09 03:47:30;;;;;;;12.85;11.55;;;15.80;99.90;;;16.58;100.00;98010.16;10294180;28;20648;-70
2023/09/09 03:52:33;;;;;;;13.95;12.77;;;15.70;99.90;;;16.54;100.00;98010.91;10292731;28;20250;-73
2023/09/09 03:57:38;;;;;;;13.43;12.27;;;15.70;99.90;;;16.52;100.00;98012.53;10295266;28;20222;-70
2023/09/09 04:02:41;;;;;;;12.60;11.57;;;15.70;99.90;;;16.54;100.00;98012.56;10293028;28;20235;-71
2023/09/09 04:07:44;;;;;;;12.77;11.77;;;15.70;99.90;;;16.49;100.00;98012.44;10293299;28;20228;-73
2023/09/09 04:12:49;;;;;;;13.52;12.35;;;15.60;99.90;;;16.50;100.00;98013.31;10291574;28;20972;-68
2023/09/09 04:17:52;;;;;;;14.20;13.00;;;15.70;99.90;;;16.49;100.00;98017.59;10290697;28;20746;-72
2023/09/09 04:22:56;;;;;;;14.05;12.85;;;15.70;99.90;;;16.46;100.00;98021.75;10294265;28;20273;-70
2023/09/09 04:28:00;;;;;;;12.70;11.70;;;15.60;99.90;;;16.49;100.00;98016.72;10296184;28;20243;-69
2023/09/09 04:33:04;;;;;;;13.30;12.18;;;15.60;99.90;;;16.36;100.00;98020.53;10301073;28;20296;-73
2023/09/09 04:38:09;;;;;;;12.88;11.68;;;15.50;99.90;;;16.26;100.00;98015.88;10301319;28;20286;-69
2023/09/09 04:43:13;;;;;;;14.30;13.10;;;15.40;99.90;;;16.17;100.00;98019.00;10298040;28;20863;-73
2023/09/09 04:48:16;;;;;;;18.38;16.98;;;15.40;99.90;;;16.21;100.00;98015.69;10302415;28;20336;-72
2023/09/09 04:53:20;;;;;;;16.17;14.95;;;15.30;99.90;;;16.17;100.00;98019.84;10300398;28;20240;-72
2023/09/09 04:58:25;;;;;;;17.98;16.58;;;15.20;99.90;;;16.18;100.00;98026.75;10297439;28;20690;-70
2023/09/09 05:03:29;;;;;;;13.95;12.75;;;15.30;99.90;;;16.16;100.00;98030.97;10298200;28;20745;-70
2023/09/09 05:08:32;;;;;;;13.45;12.15;;;15.20;99.90;;;16.16;100.00;98020.66;10298096;28;20223;-70
2023/09/09 05:13:37;;;;;;;12.90;11.80;;;15.30;99.90;;;16.19;100.00;98028.50;10298140;28;20234;-72
2023/09/09 05:18:40;;;;;;;12.27;11.27;;;15.30;99.90;;;16.18;100.00;98031.91;10297347;28;20227;-72
2023/09/09 05:23:43;;;;;;;12.55;11.55;;;15.20;99.90;;;16.23;99.98;98037.25;10298088;28;20241;-70
2023/09/09 05:28:48;;;;;;;12.13;11.23;;;15.20;99.90;;;16.25;100.00;98037.31;10296735;28;20226;-70
2023/09/09 05:33:51;;;;;;;12.40;11.32;;;15.30;99.90;;;16.27;100.00;98046.88;10292363;28;20907;-73
2023/09/09 05:38:59;;;;;;;13.60;12.40;;;15.40;99.90;;;16.54;100.00;98040.97;10296845;28;20233;-69
2023/09/09 05:44:04;;;;;;;12.13;11.13;;;15.60;99.90;;;16.99;97.69;98051.22;10308885;28;20227;-71
2023/09/09 05:49:07;;;;;;;11.70;10.73;;;15.80;99.90;;;17.59;95.32;98053.22;10298458;28;20245;-71
2023/09/09 05:54:11;;;;;;;11.63;10.68;;;16.20;99.90;;;18.19;91.71;98061.19;10306450;28;20409;-71
2023/09/09 05:59:15;;;;;;;12.18;11.10;;;17.00;99.90;;;18.76;88.66;98061.16;10305118;28;20259;-72
2023/09/09 06:04:19;;;;;;;12.10;11.05;;;17.50;99.90;;;19.25;84.05;98052.09;10300601;28;20231;-70
2023/09/09 06:09:22;;;;;;;12.35;11.25;;;17.90;99.90;;;19.74;82.63;98058.56;10299866;28;20726;-75
2023/09/09 06:14:27;;;;;;;11.07;10.18;;;18.20;99.90;;;19.45;83.44;98054.34;10294815;28;20744;-69
2023/09/09 06:19:30;;;;;;;11.73;10.73;;;18.10;99.90;;;19.53;84.31;98056.28;10295566;28;22029;-70
2023/09/09 06:24:33;;;;;;;12.25;11.20;;;18.30;99.90;;;20.12;82.29;98058.59;10299683;28;20647;-72
2023/09/09 06:29:38;;;;;;;11.63;10.32;;;18.80;99.90;;;21.07;76.59;98057.97;10295363;28;20314;-72
2023/09/09 06:34:41;;;;;;;11.13;10.27;;;19.40;99.90;;;21.82;72.56;98072.28;10297634;28;20241;-69
2023/09/09 06:39:44;;;;;;;11.10;10.07;;;19.80;99.90;;;22.14;71.29;98069.31;10296375;28;20364;-70
2023/09/09 06:44:49;;;;;;;10.98;9.98;;;20.10;99.90;;;22.37;69.62;98077.47;10292731;28;20317;-69
2023/09/09 06:49:52;;;;;;;10.95;10.00;;;20.50;99.90;;;22.93;68.09;98072.13;10293986;28;20353;-69
2023/09/09 06:54:56;;;;;;;11.73;10.80;;;21.30;99.90;;;23.50;66.01;98069.25;10298271;28;20318;-70
2023/09/09 07:00:00;;;;;;;11.10;10.10;;;21.70;99.90;;;23.98;63.58;98070.53;10296479;28;20276;-69
2023/09/09 07:05:04;;;;;;;11.27;10.40;;;22.10;99.90;;;24.57;61.67;98067.44;10295281;28;20258;-73
2023/09/09 07:10:09;;;;;;;11.38;10.38;;;22.20;99.90;;;25.22;58.73;98079.03;10296742;28;20298;-69
2023/09/09 07:15:13;;;;;;;10.93;9.93;;;22.70;99.90;;;25.60;58.07;98073.00;10294617;28;20245;-72
2023/09/09 07:20:17;;;;;;;10.57;9.88;;;23.10;99.90;;;25.52;58.53;98075.59;10288938;28;21224;-69
2023/09/09 07:25:20;;;;;;;11.52;10.63;;;23.50;99.90;;;25.34;58.74;98078.19;10290963;28;20238;-73
2023/09/09 07:30:25;;;;;;;10.98;9.95;;;23.50;99.90;;;25.48;59.39;98079.09;10299904;28;20321;-69
2023/09/09 07:35:29;;;;;;;11.30;10.32;;;24.00;99.90;;;25.82;58.69;98072.16;10308857;28;21020;-68
2023/09/09 07:40:32;;;;;;;13.07;11.98;;;24.50;99.90;;;25.98;58.78;98074.75;10298473;28;20224;-71
2023/09/09 07:45:37;;;;;;;13.25;12.05;;;24.40;99.90;;;26.21;57.80;98069.47;10296706;28;20234;-68
2023/09/09 07:50:40;;;;;;;12.27;11.27;;;25.00;99.90;;;26.33;58.50;98068.63;10296048;28;20245;-70
2023/09/09 07:55:43;;;;;;;11.30;10.35;;;25.20;99.90;;;26.65;57.36;98081.66;10296158;28;20769;-68
2023/09/09 08:00:48;;;;;;;11.95;10.95;;;25.60;99.90;;;26.90;57.22;98072.81;10298091;28;20231;-68
2023/09/09 08:05:56;;;;;;;12.57;11.27;;;25.80;99.90;;;27.08;57.10;98066.59;10307930;28;20234;-73
2023/09/09 08:11:01;;;;;;;13.15;12.02;;;26.10;99.90;;;27.31;56.57;98066.47;10323498;28;20235;-68
2023/09/09 08:16:05;;;;;;;12.18;11.13;;;26.40;99.90;;;27.68;57.12;98063.59;10304643;28;20234;-68
2023/09/09 08:21:10;;;;;;;11.38;10.43;;;26.80;99.90;;;28.09;55.95;98075.53;10326339;28;20238;-67
2023/09/09 08:26:13;;;;;;;12.27;11.13;;;27.30;99.90;;;28.16;55.70;98071.06;10310145;28;20218;-68
2023/09/09 08:31:18;;;;;;;11.60;10.70;;;27.20;99.90;;;28.45;55.00;98073.44;10299024;28;20234;-67
2023/09/09 08:36:21;;;;;;;11.50;10.55;;;27.60;99.90;;;28.92;53.70;98072.00;10296063;28;20238;-69
2023/09/09 08:41:42;;;;;;;12.00;11.02;;;28.20;99.90;;;29.11;53.19;98070.91;10294725;28;20873;-70
2023/09/09 08:46:47;;;;;;;11.38;10.48;;;28.30;99.90;;;29.36;52.32;98070.53;10294816;28;20234;-71
2023/09/09 08:51:57;;;;;;;10.80;9.88;;;28.50;99.90;;;29.61;51.90;98077.16;10283339;28;20317;-70
2023/09/09 08:57:02;;;;;;;10.88;9.80;;;28.90;99.60;;;29.89;51.02;98079.41;10299314;28;20749;-70
2023/09/09 09:02:11;;;;;;;11.40;10.40;;;29.20;99.10;;;29.98;51.71;98081.00;10284067;28;20253;-67
2023/09/09 09:07:14;;;;;;;10.65;9.63;;;29.30;99.40;;;29.89;52.75;98075.91;10280327;28;20701;-69
2023/09/09 09:12:18;;;;;;;10.23;9.45;;;29.10;99.90;;;29.82;52.99;98076.00;10282444;28;20697;-68
2023/09/09 09:17:24;;;;;;;11.45;10.55;;;29.00;99.90;;;30.03;51.41;98072.13;10287132;28;20288;-67
2023/09/09 09:22:28;;;;;;;10.80;9.80;;;29.30;99.00;;;30.36;50.72;98075.09;10282443;28;21006;-72
2023/09/09 09:27:32;;;;;;;10.32;9.63;;;29.50;98.70;;;30.44;49.91;98075.78;10301122;28;20385;-70
2023/09/09 09:32:42;;;;;;;11.63;10.63;;;29.70;97.90;;;30.51;50.26;98066.88;10303388;28;20377;-71
2023/09/09 09:38:00;;;;;;;10.20;9.30;;;29.70;98.10;;;30.49;50.01;98062.53;10302629;28;20230;-70
2023/09/09 09:43:04;;;;;;;10.57;9.75;;;29.60;98.30;;;30.49;50.42;98055.47;10300035;28;20229;-71
2023/09/09 09:48:11;;;;;;;10.23;9.32;;;29.70;98.30;;;30.43;50.70;98052.97;10300646;28;20865;-71
2023/09/09 09:53:16;;;;;;;10.88;10.05;;;29.60;98.40;;;30.82;49.30;98054.84;10303846;28;20325;-71
2023/09/09 09:58:22;;;;;;;9.98;9.27;;;30.00;97.30;;;30.87;47.87;98053.84;10306382;28;20219;-71
2023/09/09 10:03:40;;;;;;;10.48;9.68;;;30.30;96.10;;;30.81;48.10;98053.97;10299785;28;20313;-70
2023/09/09 10:09:15;;;;;;;9.70;8.85;;;30.10;96.10;;;30.88;47.61;98058.25;10294056;28;20809;-71
2023/09/09 10:14:26;;;;;;;9.45;8.75;;;30.00;96.00;;;30.70;47.94;98053.28;10295882;28;20243;-71
2023/09/09 10:19:39;;;;;;;10.65;9.75;;;30.00;95.70;;;30.60;49.99;98049.13;10305192;28;20319;-71
2023/09/09 10:24:50;;;;;;;10.00;9.27;;;29.90;97.20;;;30.65;49.83;98048.13;10289351;28;20233;-71
2023/09/09 10:29:59;;;;;;;10.50;9.55;;;30.10;96.90;;;30.93;47.53;98044.91;10314033;28;20673;-72
2023/09/09 10:35:07;;;;;;;10.77;9.77;;;30.30;95.30;;;30.90;48.33;98040.56;10304899;28;20333;-70
2023/09/09 10:40:20;;;;;;;10.45;9.60;;;30.20;95.90;;;30.93;47.94;98043.19;10307214;28;22151;-71
2023/09/09 10:45:28;;;;;;;9.38;8.68;;;30.00;95.90;;;30.94;48.35;98034.34;10305150;28;20231;-71
2023/09/09 10:50:45;;;;;;;9.98;9.25;;;30.10;96.10;;;30.97;46.83;98029.00;10289364;28;20218;-70
2023/09/09 10:55:52;;;;;;;8.75;7.90;;;30.00;95.20;;;30.77;46.89;98028.53;10291867;28;20381;-71
2023/09/09 11:00:55;;;;;;;9.80;8.60;;;30.00;94.70;;;31.00;45.00;98024.56;10291954;28;20317;-71
2023/09/09 11:06:03;;;;;;;6.90;6.28;;;30.30;93.40;;;30.90;43.83;98034.44;10292022;28;20234;-71
2023/09/09 11:11:12;;;;;;;6.43;5.68;;;30.20;92.10;;;30.92;42.98;98036.13;10302124;28;20745;-72
2023/09/09 11:16:33;;;;;;;6.60;5.95;;;30.40;91.20;;;30.84;41.56;98039.84;10293605;28;20223;-69
2023/09/09 11:21:47;;;;;;;10.07;6.30;;;30.10;90.80;;;31.02;41.89;98025.38;10291193;28;20222;-71
2023/09/09 11:26:51;;;;;;;6.60;5.70;;;30.30;90.50;;;30.88;41.41;98020.41;10296098;28;20219;-71
2023/09/09 11:31:55;;;;;;;7.07;5.72;;;30.20;90.10;;;30.96;41.89;98022.00;10295989;28;20258;-70
2023/09/09 11:37:00;;;;;;;7.60;5.82;;;30.30;90.40;;;30.84;43.22;98027.50;10296045;28;20226;-71
2023/09/09 11:42:04;;;;;;;8.07;5.88;;;30.20;91.40;;;30.49;41.72;98021.16;10291264;28;20317;-71
2023/09/09 11:47:09;;;;;;;8.80;5.13;;;29.80;90.20;;;30.52;41.56;98010.56;10290307;28;20254;-71
2023/09/09 11:52:14;;;;;;;8.40;5.43;;;29.80;89.80;;;30.46;40.30;98015.97;10295966;28;20223;-69
2023/09/09 11:57:17;;;;;;;5.90;5.40;;;29.80;87.70;;;30.58;41.26;98006.06;10305298;28;20361;-71
2023/09/09 13:57:09;;;;;;;8.63;5.45;;;29.00;87.60;;;29.15;42.11;97982.19;10435180;27;20739;-70
2023/09/09 14:02:12;;;;;;;7.22;5.70;;;29.00;86.20;;;29.40;42.76;97977.41;10405094;28;20320;-69
2023/09/09 14:07:15;;;;;;;6.88;5.65;;;28.90;87.80;;;29.52;42.39;97973.72;10385933;28;20240;-69
2023/09/09 14:12:20;;;;;;;6.00;5.50;;;29.00;87.70;;;29.56;41.19;97973.66;10362932;28;20224;-69
2023/09/09 14:17:24;;;;;;;6.13;5.53;;;28.90;86.80;;;29.59;41.71;97973.59;10390986;28;20228;-70
2023/09/09 14:22:28;;;;;;;6.20;5.40;;;28.90;87.80;;;29.64;42.40;97966.47;10403842;28;20239;-71
2023/09/09 14:27:32;;;;;;;7.10;5.10;;;28.90;89.00;;;29.78;42.04;97974.16;10386027;28;20363;-70
2023/09/09 14:32:35;;;;;;;9.18;5.53;;;28.90;88.40;;;30.01;41.77;97964.94;10408542;28;20343;-69
2023/09/09 14:37:39;;;;;;;5.93;5.32;;;29.20;88.50;;;29.92;42.10;97963.34;10409686;28;20225;-70
2023/09/09 14:42:44;;;;;;;6.72;5.60;;;29.10;88.90;;;29.87;41.78;97965.19;10401963;28;20236;-71
2023/09/09 14:47:47;;;;;;;6.25;5.50;;;29.00;88.40;;;29.96;42.34;97956.25;10409503;28;20374;-70
2023/09/09 14:52:50;;;;;;;7.47;5.45;;;29.00;89.10;;;29.79;41.48;97961.84;10405329;28;20700;-70
2023/09/09 14:57:55;;;;;;;8.43;5.22;;;28.80;87.90;;;29.60;42.51;97961.28;10405757;28;20228;-70
2023/09/09 15:02:58;;;;;;;6.72;5.15;;;28.80;88.90;;;29.56;43.13;97968.38;10380906;28;20220;-71
2023/09/09 15:08:01;;;;;;;8.93;5.75;;;28.80;89.40;;;29.54;43.78;97969.28;10370141;28;20232;-70
2023/09/09 15:13:06;;;;;;;7.32;5.20;;;28.70;90.30;;;29.43;43.27;97972.09;10344660;28;20226;-70
2023/09/09 15:18:09;;;;;;;7.50;5.40;;;28.60;90.00;;;29.36;43.61;97973.06;10330628;28;20230;-70
2023/09/09 15:23:13;;;;;;;6.78;5.18;;;28.50;90.30;;;29.28;43.23;97969.72;10334136;28;20222;-69
2023/09/09 15:28:18;;;;;;;5.32;4.82;;;28.40;90.10;;;29.27;43.77;97967.97;10333907;28;20662;-70
2023/09/09 15:33:22;;;;;;;5.93;5.35;;;28.40;90.20;;;29.19;44.38;97974.25;10327102;28;20707;-70
2023/09/09 15:38:27;;;;;;;7.05;5.60;;;28.20;91.10;;;29.12;44.45;97972.56;10326795;28;20222;-71
2023/09/09 15:43:32;;;;;;;8.77;6.07;;;28.20;90.60;;;29.10;44.52;97970.84;10327844;28;20226;-70
2023/09/09 15:48:35;;;;;;;6.50;5.85;;;28.20;91.10;;;29.05;45.56;97976.22;10331247;28;20214;-70
2023/09/09 15:53:39;;;;;;;6.38;5.30;;;28.10;91.50;;;29.00;44.94;97956.94;10330007;28;20233;-71
2023/09/09 15:58:45;;;;;;;7.72;5.90;;;28.10;91.30;;;28.92;45.90;97959.69;10331041;28;20222;-72
2023/09/09 16:03:48;;;;;;;7.35;5.72;;;28.00;91.60;;;28.80;45.01;97959.00;10328692;28;20230;-70
2023/09/09 16:08:52;;;;;;;8.70;6.15;;;27.90;91.50;;;28.74;45.88;97957.34;10327090;28;20222;-72
2023/09/09 16:13:56;;;;;;;8.07;5.60;;;27.80;92.00;;;28.67;46.36;97953.03;10327416;28;20663;-71
2023/09/09 16:19:00;;;;;;;7.07;5.60;;;27.70;91.90;;;28.59;46.54;97955.78;10328769;28;20218;-71
2023/09/09 16:24:03;;;;;;;8.20;5.72;;;27.70;91.90;;;28.49;46.00;97955.03;10339747;28;20572;-70
2023/09/09 16:29:08;;;;;;;6.78;5.85;;;27.60;92.00;;;28.41;46.86;97963.88;10328848;28;20234;-72
2023/09/09 16:34:12;;;;;;;8.10;5.90;;;27.50;92.90;;;28.27;47.52;97972.81;10323794;28;20321;-72
2023/09/09 16:39:15;;;;;;;8.43;6.25;;;27.30;93.30;;;28.15;48.38;97966.81;10330047;28;20230;-71
2023/09/09 16:44:20;;;;;;;6.43;5.82;;;27.20;93.70;;;28.01;49.88;97973.06;10337072;28;20226;-71
2023/09/09 16:49:23;;;;;;;6.20;5.60;;;27.00;94.80;;;27.88;50.43;97975.88;10335794;28;21141;-71
2023/09/09 16:54:26;;;;;;;6.47;5.78;;;26.90;95.50;;;27.74;51.88;97971.59;10344415;28;20228;-71
2023/09/09 16:59:37;;;;;;;6.28;5.68;;;26.70;96.40;;;27.56;52.31;97974.41;10338279;28;20261;-71
2023/09/09 17:04:40;;;;;;;7.40;6.55;;;26.60;96.90;;;27.37;53.32;97982.41;10339478;28;20788;-70
2023/09/09 17:09:43;;;;;;;9.05;6.90;;;26.40;97.40;;;27.16;55.06;97986.09;10354516;28;20229;-70
2023/09/09 17:14:48;;;;;;;8.52;7.40;;;26.10;98.70;;;27.00;57.84;97988.78;10351752;28;20240;-70
2023/09/09 17:19:51;;;;;;;8.13;7.25;;;25.90;99.90;;;26.79;60.08;97995.91;10338488;28;20277;-71
2023/09/09 17:24:54;;;;;;;9.80;7.72;;;25.80;99.90;;;26.49;62.97;97997.75;10334311;28;20230;-70
2023/09/09 17:29:59;;;;;;;8.70;7.57;;;25.40;99.90;;;26.28;64.12;97998.72;10349610;28;20253;-70
2023/09/09 17:35:05;;;;;;;9.35;7.28;;;25.20;99.90;;;26.06;65.27;98003.13;10342922;28;20689;-71
2023/09/09 17:40:09;;;;;;;10.15;8.35;;;25.00;99.90;;;25.95;66.30;98012.75;10359365;28;20236;-71
2023/09/09 17:45:14;;;;;;;9.23;7.95;;;24.90;99.90;;;25.93;65.89;98006.66;10338033;28;20237;-73
2023/09/09 17:50:18;;;;;;;9.85;8.85;;;24.90;99.90;;;25.81;66.27;98009.25;10364092;28;20271;-72
2023/09/09 17:55:22;;;;;;;10.80;8.40;;;24.80;99.90;;;25.70;67.20;98014.53;10322597;28;20321;-74
2023/09/09 18:00:26;;;;;;;8.55;7.65;;;24.70;99.90;;;25.53;67.36;98021.50;10346611;28;20226;-73
2023/09/09 18:05:35;;;;;;;8.57;7.78;;;24.50;99.90;;;25.37;69.24;98025.84;10351727;28;20317;-71
2023/09/09 18:10:40;;;;;;;8.50;7.70;;;24.30;99.90;;;25.16;70.39;98030.19;10331515;28;20237;-71
2023/09/09 18:15:45;;;;;;;10.65;7.88;;;24.20;99.90;;;25.08;71.34;98028.41;10329641;28;20233;-73
2023/09/09 18:20:50;;;;;;;8.20;7.40;;;24.10;99.90;;;24.98;71.80;98035.38;10363704;28;20978;-72
2023/09/09 18:25:56;;;;;;;8.68;7.88;;;24.00;99.90;;;24.77;72.85;98043.13;10338994;28;20663;-72
2023/09/09 18:31:03;;;;;;;8.95;7.68;;;23.90;99.90;;;24.73;73.50;98037.88;10330465;28;20859;-72
2023/09/09 18:36:07;;;;;;;8.15;7.43;;;23.80;99.90;;;24.59;74.18;98057.88;10333940;28;20625;-72
2023/09/09 18:41:10;;;;;;;10.32;7.95;;;23.60;99.90;;;24.43;74.96;98067.38;10346326;28;20229;-72
2023/09/09 18:46:16;;;;;;;8.82;7.85;;;23.40;99.90;;;24.26;76.73;98067.25;10334003;28;20334;-73
2023/09/09 18:51:21;;;;;;;8.90;8.05;;;23.20;99.90;;;24.07;78.16;98062.78;10344372;28;20237;-71
2023/09/09 18:56:24;;;;;;;11.25;8.50;;;23.00;99.90;;;23.82;79.22;98078.25;10331122;28;20793;-71
2023/09/09 19:01:31;;;;;;;9.85;8.25;;;22.80;99.90;;;23.80;79.84;98072.16;10362801;28;20233;-72
2023/09/09 19:06:35;;;;;;;9.40;8.45;;;22.70;99.90;;;23.61;80.95;98080.69;10362121;28;20226;-72
2023/09/09 19:11:38;;;;;;;9.98;9.05;;;22.60;99.90;;;23.38;82.59;98081.34;10370600;28;21253;-72
2023/09/09 19:16:43;;;;;;;11.75;9.68;;;22.40;99.90;;;23.25;83.40;98086.41;10361973;28;20452;-72
2023/09/09 19:21:46;;;;;;;10.60;9.40;;;22.20;99.90;;;23.16;84.27;98097.63;10372382;28;20249;-71
2023/09/09 19:26:49;;;;;;;10.70;9.70;;;22.20;99.90;;;22.99;85.00;98101.78;10362472;28;20349;-71
2023/09/09 19:31:54;;;;;;;10.25;9.35;;;22.00;99.90;;;22.94;85.25;98102.53;10333687;28;20307;-70
2023/09/09 19:36:58;;;;;;;10.63;9.07;;;22.00;99.90;;;22.87;85.09;98108.56;10349624;28;20722;-71
2023/09/09 19:42:03;;;;;;;11.43;10.32;;;21.90;99.90;;;22.80;85.24;98105.84;10367564;28;20310;-73
2023/09/09 19:47:08;;;;;;;9.98;8.98;;;21.80;99.90;;;22.66;85.47;98116.06;10328827;28;20352;-71
2023/09/09 19:52:11;;;;;;;10.07;9.15;;;21.70;99.90;;;22.67;86.12;98112.63;10324774;28;21160;-71
2023/09/09 19:57:14;;;;;;;11.00;10.00;;;21.70;99.90;;;22.59;86.15;98116.88;10328332;28;20330;-71
2023/09/09 20:02:19;;;;;;;9.82;8.88;;;21.60;99.90;;;22.41;86.10;98110.56;10332784;28;20315;-71
2023/09/09 20:07:23;;;;;;;9.82;8.82;;;21.40;99.90;;;22.32;86.68;98105.22;10330802;28;20741;-71
2023/09/09 20:12:26;;;;;;;12.18;9.35;;;21.30;99.90;;;22.22;87.47;98108.53;10332020;28;20608;-71
2023/09/09 20:17:30;;;;;;;9.05;8.23;;;21.20;99.90;;;22.12;87.71;98107.50;10336805;28;20729;-73
2023/09/09 20:22:34;;;;;;;9.77;8.20;;;21.10;99.90;;;22.08;87.05;98110.88;10324100;28;20796;-69
2023/09/09 20:27:37;;;;;;;9.35;8.45;;;21.10;99.90;;;22.04;86.46;98109.09;10326914;28;20234;-71
2023/09/09 20:32:44;;;;;;;9.65;8.75;;;21.00;99.90;;;21.89;87.00;98109.72;10335692;28;20233;-70
2023/09/09 20:37:50;;;;;;;10.10;9.20;;;20.90;99.90;;;21.82;87.63;98111.34;10344230;28;20273;-74
2023/09/09 20:42:55;;;;;;;11.00;9.18;;;20.80;99.90;;;21.72;88.60;98116.34;10335730;28;20748;-71
2023/09/09 20:48:00;;;;;;;11.45;9.00;;;20.70;99.90;;;21.61;89.12;98117.94;10329720;28;20230;-71
2023/09/09 20:53:05;;;;;;;9.77;8.93;;;20.60;99.90;;;21.49;89.51;98123.75;10335596;28;20225;-71
2023/09/09 20:58:08;;;;;;;10.35;9.43;;;20.50;99.90;;;21.42;89.91;98117.56;10337024;28;20234;-71
2023/09/09 21:03:13;;;;;;;9.82;8.90;;;20.40;99.90;;;21.35;89.76;98111.38;10329956;28;20226;-71
2023/09/09 21:08:16;;;;;;;10.95;9.00;;;20.40;99.90;;;21.36;89.52;98112.22;10326387;28;20660;-72
2023/09/09 21:13:20;;;;;;;9.63;8.80;;;20.40;99.90;;;21.22;90.41;98108.50;10338247;28;20274;-72
2023/09/09 21:18:25;;;;;;;10.25;9.23;;;20.30;99.90;;;21.18;90.72;98111.91;10338970;28;20230;-73
2023/09/09 21:23:28;;;;;;;9.38;8.57;;;20.20;99.90;;;21.08;91.03;98108.22;10360402;28;20265;-73
2023/09/09 21:28:31;;;;;;;10.68;9.65;;;20.20;99.90;;;21.04;91.02;98109.91;10334574;28;20333;-71
2023/09/09 21:33:36;;;;;;;10.20;9.20;;;20.00;99.90;;;21.00;90.77;98113.25;10338590;28;20599;-71
2023/09/09 21:38:41;;;;;;;9.88;8.98;;;20.00;99.90;;;20.81;91.77;98111.16;10343524;28;20229;-71
2023/09/09 21:43:45;;;;;;;10.50;9.30;;;19.80;99.90;;;20.89;91.92;98112.22;10341611;28;20296;-70
2023/09/09 21:48:50;;;;;;;9.70;8.93;;;19.90;99.90;;;20.77;92.21;98109.34;10334204;28;20269;-72
2023/09/09 21:53:53;;;;;;;10.73;9.73;;;19.80;99.90;;;20.72;92.45;98110.94;10347226;28;20234;-72
2023/09/09 21:58:56;;;;;;;11.00;9.88;;;19.80;99.90;;;20.47;93.80;98116.47;10345480;28;20588;-71
2023/09/09 22:04:01;;;;;;;10.40;9.48;;;19.50;99.90;;;20.39;94.05;98109.34;10332760;28;20353;-72
2023/09/09 22:09:04;;;;;;;12.15;10.35;;;19.40;99.90;;;20.35;94.79;98105.81;10357437;28;20214;-71
2023/09/09 22:14:08;;;;;;;12.27;11.07;;;19.40;99.90;;;20.33;94.32;98104.03;10359045;28;20321;-72
2023/09/09 22:19:12;;;;;;;12.35;10.65;;;19.40;99.90;;;20.34;94.57;98106.66;10341190;28;20234;-71
2023/09/09 22:24:15;;;;;;;11.07;9.98;;;19.40;99.90;;;20.29;93.76;98102.19;10340335;28;20234;-72
2023/09/09 22:29:19;;;;;;;11.93;10.70;;;19.40;99.90;;;20.28;93.83;98103.03;10352204;28;20305;-71
2023/09/09 22:34:23;;;;;;;11.23;10.00;;;19.40;99.90;;;20.15;93.98;98102.78;10349854;28;21419;-70
2023/09/09 22:39:26;;;;;;;10.93;9.82;;;19.20;99.90;;;20.13;93.71;98109.63;10329774;23;20321;-78
2023/09/09 22:44:30;;;;;;;10.88;9.80;;;19.20;99.90;;;20.09;93.55;98113.03;10327964;28;20214;-77